Decoded Metar for MMSP (SAN LUIS POTOSI in MEXICO) (IATA:SLP) | Meteo·Mobile Aviation Weather
aviador You're here:

MMSP Decoded Metar

SAN LUIS POTOSI in MEXICO
Report Time2018-12-15 14:47:00
UTC Time2018-12-15 15:43:16
Flight Rules vfr VFR
WindCalm
Visibility9999 m
Phenomena:N/A
Clouds:Few 250 Hf
Expected CloudBase > 4,400 ft AGL from Temp-Dew spread
CeilingNone
Temp02°C (ISA -1)
Dew Point-9°C (44% RH)
AAT-1.0°C
QNH1030 hPa
Density Alt5,653 ft
Elevation6,243 ft
Report Wrong Elevation
Raw Report
MMSP 151447Z 00000KT 10SM FEW250 02/M09 A3041 RMK SLP272 52004 919
8/001=

Extra information for MMSP:More info

Metar Taf Metar & Taf Last 4 Metars F.Rules Stats Wind Profile Meteogram Temp Stats Airport Information Weather charts Add Link Nearby VenuesMetar ALERT Operation Metar Decoded Social comments